Back to Top

Language: 

My Weather Underground Personal Weather Station Historical Data with Graphs...

Delerius Weather Station Historical Data
Daily Summary for January 5, 2017 Units:  Both    English   Metric
« Previous Day
Next Day »
Daily Weekly Monthly Yearly Custom
  High: Low: Average:
Temperature: 43.3 °F /  6.3 °C 28.3 °F /  -2.1 °C 34 °F /  1.1 °C
Dew Point: 34.2 °F /  1.2 °C 25.7 °F /  -3.5 °C 29.5 °F /  -1.4 °C
Humidity: 95 % 70 % 84 %
Wind Speed: 5.0 mph /  8 km/h - 0.8 mph /  1.3 km/h
Wind Gust: 29.0 mph /  46.7 km/h - -
Wind:- - WNW
Pressure: 30.58 in /  1035.4 hPa 30.46 in /  1031.4 hPa -
Precipitation: 0.00 in /  0 mm    
Historical Graphs
 
 
Tabular Data for January 5, 2017
Time Temperature Dew Point Pressure Wind Wind Speed Wind Gust Humidity Rainfall Rate (Hourly) solar Conditions
00:00 35.6 °F /  2 °C 28.8 °F /  -1.8 °C 30.46 in /  1031.4 hPa NW 4.0 mph /  6.4 km/h 29.0 mph /  46.7 km/h 76 % 0.00 in /  0 mm 0 W/m2
00:05 35.5 °F /  1.9 °C 28.7 °F /  -1.8 °C 30.46 in /  1031.4 hPa NW 4.0 mph /  6.4 km/h 29.0 mph /  46.7 km/h 76 % 0.00 in /  0 mm 0 W/m2
00:15 35.3 °F /  1.8 °C 28.5 °F /  -1.9 °C 30.46 in /  1031.4 hPa NW 4.0 mph /  6.4 km/h 7.0 mph /  11.3 km/h 76 % 0.00 in /  0 mm 0 W/m2
00:20 35.2 °F /  1.8 °C 28.7 °F /  -1.8 °C 30.46 in /  1031.4 hPa NW 4.0 mph /  6.4 km/h 5.0 mph /  8 km/h 77 % 0.00 in /  0 mm 0 W/m2
00:25 35.1 °F /  1.7 °C 28.6 °F /  -1.9 °C 30.46 in /  1031.4 hPa NW 4.0 mph /  6.4 km/h 5.0 mph /  8 km/h 77 % 0.00 in /  0 mm 0 W/m2
00:30 34.9 °F /  1.6 °C 28.4 °F /  -2 °C 30.46 in /  1031.4 hPa NW 4.0 mph /  6.4 km/h 5.0 mph /  8 km/h 77 % 0.00 in /  0 mm 0 W/m2
00:35 34.9 °F /  1.6 °C 28.4 °F /  -2 °C 30.46 in /  1031.4 hPa NW 4.0 mph /  6.4 km/h 5.0 mph /  8 km/h 77 % 0.00 in /  0 mm 0 W/m2
00:40 34.8 °F /  1.6 °C 28.3 °F /  -2.1 °C 30.46 in /  1031.4 hPa NW 3.0 mph /  4.8 km/h 3.0 mph /  4.8 km/h 77 % 0.00 in /  0 mm 0 W/m2
00:50 34.5 °F /  1.4 °C 28.3 °F /  -2.1 °C 30.46 in /  1031.4 hPa NW 3.0 mph /  4.8 km/h 3.0 mph /  4.8 km/h 78 % 0.00 in /  0 mm 0 W/m2
01:00 34.3 °F /  1.3 °C 28.2 °F /  -2.1 °C 30.46 in /  1031.4 hPa NW 4.0 mph /  6.4 km/h 4.0 mph /  6.4 km/h 78 % 0.00 in /  0 mm 0 W/m2
01:05 34.2 °F /  1.2 °C 28.4 °F /  -2 °C 30.46 in /  1031.4 hPa NW 3.0 mph /  4.8 km/h 8.0 mph /  12.9 km/h 79 % 0.00 in /  0 mm 0 W/m2
01:10 34.2 °F /  1.2 °C 28.4 °F /  -2 °C 30.47 in /  1031.7 hPa NW 2.0 mph /  3.2 km/h 8.0 mph /  12.9 km/h 79 % 0.00 in /  0 mm 0 W/m2
01:15 34.1 °F /  1.2 °C 28.3 °F /  -2.1 °C 30.47 in /  1031.7 hPa NW 2.0 mph /  3.2 km/h 8.0 mph /  12.9 km/h 79 % 0.00 in /  0 mm 0 W/m2
01:25 34.1 °F /  1.2 °C 28.6 °F /  -1.9 °C 30.47 in /  1031.7 hPa NW 2.0 mph /  3.2 km/h 8.0 mph /  12.9 km/h 80 % 0.00 in /  0 mm 0 W/m2
01:30 34.1 °F /  1.2 °C 28.6 °F /  -1.9 °C 30.47 in /  1031.7 hPa NW 1.0 mph /  1.6 km/h 8.0 mph /  12.9 km/h 80 % 0.00 in /  0 mm 0 W/m2
01:35 34.0 °F /  1.1 °C 28.5 °F /  -1.9 °C 30.47 in /  1031.7 hPa NW 1.0 mph /  1.6 km/h 8.0 mph /  12.9 km/h 80 % 0.00 in /  0 mm 0 W/m2
01:40 33.9 °F /  1.1 °C 28.4 °F /  -2 °C 30.47 in /  1031.7 hPa NW 2.0 mph /  3.2 km/h 8.0 mph /  12.9 km/h 80 % 0.00 in /  0 mm 0 W/m2
01:45 34.0 °F /  1.1 °C 28.8 °F /  -1.8 °C 30.47 in /  1031.7 hPa NW 2.0 mph /  3.2 km/h 8.0 mph /  12.9 km/h 81 % 0.00 in /  0 mm 0 W/m2
01:50 34.0 °F /  1.1 °C 28.5 °F /  -1.9 °C 30.47 in /  1031.7 hPa NW 2.0 mph /  3.2 km/h 8.0 mph /  12.9 km/h 80 % 0.00 in /  0 mm 0 W/m2
02:00 34.2 °F /  1.2 °C 28.7 °F /  -1.8 °C 30.47 in /  1031.7 hPa WNW 4.0 mph /  6.4 km/h 4.0 mph /  6.4 km/h 80 % 0.00 in /  0 mm 0 W/m2
02:05 34.2 °F /  1.2 °C 28.7 °F /  -1.8 °C 30.47 in /  1031.7 hPa NW 3.0 mph /  4.8 km/h 8.0 mph /  12.9 km/h 80 % 0.00 in /  0 mm 0 W/m2
02:10 34.0 °F /  1.1 °C 28.5 °F /  -1.9 °C 30.47 in /  1031.7 hPa NW 2.0 mph /  3.2 km/h 8.0 mph /  12.9 km/h 80 % 0.00 in /  0 mm 0 W/m2
02:15 33.9 °F /  1.1 °C 28.4 °F /  -2 °C 30.48 in /  1032.1 hPa NW 2.0 mph /  3.2 km/h 8.0 mph /  12.9 km/h 80 % 0.00 in /  0 mm 0 W/m2
02:20 33.7 °F /  0.9 °C 28.2 °F /  -2.1 °C 30.48 in /  1032.1 hPa NW 2.0 mph /  3.2 km/h 8.0 mph /  12.9 km/h 80 % 0.00 in /  0 mm 0 W/m2
02:25 33.7 °F /  0.9 °C 28.5 °F /  -1.9 °C 30.48 in /  1032.1 hPa NW 3.0 mph /  4.8 km/h 8.0 mph /  12.9 km/h 81 % 0.00 in /  0 mm 0 W/m2
02:35 33.6 °F /  0.9 °C 28.4 °F /  -2 °C 30.48 in /  1032.1 hPa NW 4.0 mph /  6.4 km/h 8.0 mph /  12.9 km/h 81 % 0.00 in /  0 mm 0 W/m2
02:40 33.5 °F /  0.8 °C 28.3 °F /  -2.1 °C 30.48 in /  1032.1 hPa WNW 3.0 mph /  4.8 km/h 8.0 mph /  12.9 km/h 81 % 0.00 in /  0 mm 0 W/m2
02:45 33.5 °F /  0.8 °C 28.3 °F /  -2.1 °C 30.48 in /  1032.1 hPa NW 3.0 mph /  4.8 km/h 8.0 mph /  12.9 km/h 81 % 0.00 in /  0 mm 0 W/m2
02:50 33.5 °F /  0.8 °C 28.3 °F /  -2.1 °C 30.48 in /  1032.1 hPa NW 3.0 mph /  4.8 km/h 8.0 mph /  12.9 km/h 81 % 0.00 in /  0 mm 0 W/m2
02:55 33.6 °F /  0.9 °C 28.4 °F /  -2 °C 30.49 in /  1032.4 hPa NW 3.0 mph /  4.8 km/h 8.0 mph /  12.9 km/h 81 % 0.00 in /  0 mm 0 W/m2
03:00 33.8 °F /  1 °C 28.6 °F /  -1.9 °C 30.49 in /  1032.4 hPa NW 1.0 mph /  1.6 km/h 8.0 mph /  12.9 km/h 81 % 0.00 in /  0 mm 0 W/m2
03:10 33.9 °F /  1.1 °C 28.4 °F /  -2 °C 30.49 in /  1032.4 hPa NW 2.0 mph /  3.2 km/h 8.0 mph /  12.9 km/h 80 % 0.00 in /  0 mm 0 W/m2
03:15 33.9 °F /  1.1 °C 28.7 °F /  -1.8 °C 30.49 in /  1032.4 hPa NW 2.0 mph /  3.2 km/h 8.0 mph /  12.9 km/h 81 % 0.00 in /  0 mm 0 W/m2
03:20 33.9 °F /  1.1 °C 28.7 °F /  -1.8 °C 30.49 in /  1032.4 hPa NW 1.0 mph /  1.6 km/h 8.0 mph /  12.9 km/h 81 % 0.00 in /  0 mm 0 W/m2
03:25 33.8 °F /  1 °C 28.6 °F /  -1.9 °C 30.49 in /  1032.4 hPa NW 1.0 mph /  1.6 km/h 8.0 mph /  12.9 km/h 81 % 0.00 in /  0 mm 0 W/m2
03:30 33.8 °F /  1 °C 28.3 °F /  -2.1 °C 30.49 in /  1032.4 hPa NW 2.0 mph /  3.2 km/h 2.0 mph /  3.2 km/h 80 % 0.00 in /  0 mm 0 W/m2
03:35 33.6 °F /  0.9 °C 28.1 °F /  -2.2 °C 30.49 in /  1032.4 hPa NW 2.0 mph /  3.2 km/h 8.0 mph /  12.9 km/h 80 % 0.00 in /  0 mm 0 W/m2
03:45 33.4 °F /  0.8 °C 27.9 °F /  -2.3 °C 30.49 in /  1032.4 hPa NW 2.0 mph /  3.2 km/h 8.0 mph /  12.9 km/h 80 % 0.00 in /  0 mm 0 W/m2
03:55 33.2 °F /  0.7 °C 28.0 °F /  -2.2 °C 30.49 in /  1032.4 hPa NW 2.0 mph /  3.2 km/h 8.0 mph /  12.9 km/h 81 % 0.00 in /  0 mm 0 W/m2
04:00 33.1 °F /  0.6 °C 27.9 °F /  -2.3 °C 30.48 in /  1032.1 hPa NW 2.0 mph /  3.2 km/h 2.0 mph /  3.2 km/h 81 % 0.00 in /  0 mm 0 W/m2
04:05 33.0 °F /  0.6 °C 27.8 °F /  -2.3 °C 30.48 in /  1032.1 hPa NW 1.0 mph /  1.6 km/h 8.0 mph /  12.9 km/h 81 % 0.00 in /  0 mm 0 W/m2
04:10 32.7 °F /  0.4 °C 27.5 °F /  -2.5 °C 30.48 in /  1032.1 hPa NW 1.0 mph /  1.6 km/h 1.0 mph /  1.6 km/h 81 % 0.00 in /  0 mm 0 W/m2
04:15 32.4 °F /  0.2 °C 27.2 °F /  -2.7 °C 30.48 in /  1032.1 hPa NW 1.0 mph /  1.6 km/h 2.0 mph /  3.2 km/h 81 % 0.00 in /  0 mm 0 W/m2
04:20 32.1 °F /  0.1 °C 27.2 °F /  -2.7 °C 30.48 in /  1032.1 hPa NW 1.0 mph /  1.6 km/h 1.0 mph /  1.6 km/h 82 % 0.00 in /  0 mm 0 W/m2
04:30 31.6 °F /  -0.2 °C 27.0 °F /  -2.8 °C 30.48 in /  1032.1 hPa NW 1.0 mph /  1.6 km/h 8.0 mph /  12.9 km/h 83 % 0.00 in /  0 mm 0 W/m2
04:35 31.3 °F /  -0.4 °C 27.0 °F /  -2.8 °C 30.48 in /  1032.1 hPa NW 2.0 mph /  3.2 km/h 8.0 mph /  12.9 km/h 84 % 0.00 in /  0 mm 0 W/m2
04:40 31.2 °F /  -0.4 °C 26.9 °F /  -2.8 °C 30.49 in /  1032.4 hPa NW 2.0 mph /  3.2 km/h 2.0 mph /  3.2 km/h 84 % 0.00 in /  0 mm 0 W/m2
04:45 31.2 °F /  -0.4 °C 26.9 °F /  -2.8 °C 30.49 in /  1032.4 hPa NW 1.0 mph /  1.6 km/h 8.0 mph /  12.9 km/h 84 % 0.00 in /  0 mm 0 W/m2
04:50 31.1 °F /  -0.5 °C 26.8 °F /  -2.9 °C 30.49 in /  1032.4 hPa NW 1.0 mph /  1.6 km/h 1.0 mph /  1.6 km/h 84 % 0.00 in /  0 mm 0 W/m2
04:55 31.0 °F /  -0.6 °C 27.0 °F /  -2.8 °C 30.49 in /  1032.4 hPa NW 1.0 mph /  1.6 km/h 8.0 mph /  12.9 km/h 85 % 0.00 in /  0 mm 0 W/m2
05:00 30.8 °F /  -0.7 °C 26.8 °F /  -2.9 °C 30.49 in /  1032.4 hPa Calm   8.0 mph /  12.9 km/h 85 % 0.00 in /  0 mm 0 W/m2
05:10 30.4 °F /  -0.9 °C 26.4 °F /  -3.1 °C 30.50 in /  1032.7 hPa NW 1.0 mph /  1.6 km/h 8.0 mph /  12.9 km/h 85 % 0.00 in /  0 mm 0 W/m2
05:15 30.2 °F /  -1 °C 26.5 °F /  -3.1 °C 30.50 in /  1032.7 hPa NW 2.0 mph /  3.2 km/h 8.0 mph /  12.9 km/h 86 % 0.00 in /  0 mm 0 W/m2
05:20 30.2 °F /  -1 °C 26.8 °F /  -2.9 °C 30.50 in /  1032.7 hPa NW 1.0 mph /  1.6 km/h 8.0 mph /  12.9 km/h 87 % 0.00 in /  0 mm 0 W/m2
05:25 30.4 °F /  -0.9 °C 27.0 °F /  -2.8 °C 30.50 in /  1032.7 hPa NW 1.0 mph /  1.6 km/h 8.0 mph /  12.9 km/h 87 % 0.00 in /  0 mm 0 W/m2
05:30 30.5 °F /  -0.8 °C 27.1 °F /  -2.7 °C 30.50 in /  1032.7 hPa NW 1.0 mph /  1.6 km/h 1.0 mph /  1.6 km/h 87 % 0.00 in /  0 mm 0 W/m2
05:35 30.5 °F /  -0.8 °C 27.1 °F /  -2.7 °C 30.50 in /  1032.7 hPa Calm   8.0 mph /  12.9 km/h 87 % 0.00 in /  0 mm 0 W/m2
05:45 30.3 °F /  -0.9 °C 26.9 °F /  -2.8 °C 30.50 in /  1032.7 hPa Calm   8.0 mph /  12.9 km/h 87 % 0.00 in /  0 mm 0 W/m2
05:50 30.2 °F /  -1 °C 26.8 °F /  -2.9 °C 30.50 in /  1032.7 hPa Calm   8.0 mph /  12.9 km/h 87 % 0.00 in /  0 mm 0 W/m2
05:55 30.1 °F /  -1.1 °C 26.7 °F /  -2.9 °C 30.50 in /  1032.7 hPa NW 1.0 mph /  1.6 km/h 8.0 mph /  12.9 km/h 87 % 0.00 in /  0 mm 0 W/m2
06:00 30.1 °F /  -1.1 °C 27.0 °F /  -2.8 °C 30.51 in /  1033.1 hPa NW 1.0 mph /  1.6 km/h 8.0 mph /  12.9 km/h 88 % 0.00 in /  0 mm 0 W/m2
06:05 30.0 °F /  -1.1 °C 26.6 °F /  -3 °C 30.51 in /  1033.1 hPa NW 1.0 mph /  1.6 km/h 8.0 mph /  12.9 km/h 87 % 0.00 in /  0 mm 0 W/m2
06:10 29.9 °F /  -1.2 °C 26.5 °F /  -3.1 °C 30.51 in /  1033.1 hPa NW 1.0 mph /  1.6 km/h 1.0 mph /  1.6 km/h 87 % 0.00 in /  0 mm 0 W/m2
06:15 29.8 °F /  -1.2 °C 26.4 °F /  -3.1 °C 30.51 in /  1033.1 hPa Calm   8.0 mph /  12.9 km/h 87 % 0.00 in /  0 mm 0 W/m2
06:25 29.6 °F /  -1.3 °C 26.5 °F /  -3.1 °C 30.51 in /  1033.1 hPa Calm   8.0 mph /  12.9 km/h 88 % 0.00 in /  0 mm 0 W/m2
06:30 29.5 °F /  -1.4 °C 26.4 °F /  -3.1 °C 30.51 in /  1033.1 hPa Calm   8.0 mph /  12.9 km/h 88 % 0.00 in /  0 mm 0 W/m2
06:35 29.3 °F /  -1.5 °C 26.2 °F /  -3.2 °C 30.51 in /  1033.1 hPa NW 1.0 mph /  1.6 km/h 8.0 mph /  12.9 km/h 88 % 0.00 in /  0 mm 0 W/m2
06:40 29.2 °F /  -1.6 °C 26.1 °F /  -3.3 °C 30.51 in /  1033.1 hPa NW 1.0 mph /  1.6 km/h 8.0 mph /  12.9 km/h 88 % 0.00 in /  0 mm 0 W/m2
06:45 29.1 °F /  -1.6 °C 26.0 °F /  -3.3 °C 30.51 in /  1033.1 hPa NW 1.0 mph /  1.6 km/h 8.0 mph /  12.9 km/h 88 % 0.00 in /  0 mm 0 W/m2
06:50 29.0 °F /  -1.7 °C 26.2 °F /  -3.2 °C 30.51 in /  1033.1 hPa NW 1.0 mph /  1.6 km/h 8.0 mph /  12.9 km/h 89 % 0.00 in /  0 mm 0 W/m2
06:55 29.0 °F /  -1.7 °C 26.2 °F /  -3.2 °C 30.51 in /  1033.1 hPa NW 1.0 mph /  1.6 km/h 8.0 mph /  12.9 km/h 89 % 0.00 in /  0 mm 0 W/m2
07:00 29.0 °F /  -1.7 °C 26.2 °F /  -3.2 °C 30.51 in /  1033.1 hPa NW 2.0 mph /  3.2 km/h 8.0 mph /  12.9 km/h 89 % 0.00 in /  0 mm 0 W/m2
07:10 29.2 °F /  -1.6 °C 26.4 °F /  -3.1 °C 30.51 in /  1033.1 hPa NW 1.0 mph /  1.6 km/h 8.0 mph /  12.9 km/h 89 % 0.00 in /  0 mm 0 W/m2
07:15 29.2 °F /  -1.6 °C 26.4 °F /  -3.1 °C 30.51 in /  1033.1 hPa NW 1.0 mph /  1.6 km/h 8.0 mph /  12.9 km/h 89 % 0.00 in /  0 mm 0 W/m2
07:20 29.0 °F /  -1.7 °C 26.2 °F /  -3.2 °C 30.52 in /  1033.4 hPa NW 1.0 mph /  1.6 km/h 1.0 mph /  1.6 km/h 89 % 0.00 in /  0 mm 0 W/m2
07:25 28.9 °F /  -1.7 °C 26.1 °F /  -3.3 °C 30.52 in /  1033.4 hPa Calm   8.0 mph /  12.9 km/h 89 % 0.00 in /  0 mm 0 W/m2
07:30 28.8 °F /  -1.8 °C 26.0 °F /  -3.3 °C 30.52 in /  1033.4 hPa Calm   8.0 mph /  12.9 km/h 89 % 0.00 in /  0 mm 0 W/m2
07:35 28.7 °F /  -1.8 °C 25.9 °F /  -3.4 °C 30.52 in /  1033.4 hPa Calm   8.0 mph /  12.9 km/h 89 % 0.00 in /  0 mm 0 W/m2
07:40 28.6 °F /  -1.9 °C 26.0 °F /  -3.3 °C 30.53 in /  1033.7 hPa Calm   8.0 mph /  12.9 km/h 90 % 0.00 in /  0 mm 0 W/m2
07:45 28.4 °F /  -2 °C 25.8 °F /  -3.4 °C 30.53 in /  1033.7 hPa Calm   8.0 mph /  12.9 km/h 90 % 0.00 in /  0 mm 0 W/m2
07:50 28.4 °F /  -2 °C 25.8 °F /  -3.4 °C 30.53 in /  1033.7 hPa Calm   8.0 mph /  12.9 km/h 90 % 0.00 in /  0 mm 0 W/m2
08:00 28.5 °F /  -1.9 °C 25.9 °F /  -3.4 °C 30.53 in /  1033.7 hPa Calm   8.0 mph /  12.9 km/h 90 % 0.00 in /  0 mm 0 W/m2
08:05 28.5 °F /  -1.9 °C 25.9 °F /  -3.4 °C 30.53 in /  1033.7 hPa Calm   8.0 mph /  12.9 km/h 90 % 0.00 in /  0 mm 0 W/m2
08:10 28.3 °F /  -2.1 °C 25.7 °F /  -3.5 °C 30.54 in /  1034.1 hPa Calm   8.0 mph /  12.9 km/h 90 % 0.00 in /  0 mm 5 W/m2
08:15 28.4 °F /  -2 °C 26.1 °F /  -3.3 °C 30.54 in /  1034.1 hPa NW 1.0 mph /  1.6 km/h 8.0 mph /  12.9 km/h 91 % 0.00 in /  0 mm 5 W/m2
08:20 28.5 °F /  -1.9 °C 26.2 °F /  -3.2 °C 30.54 in /  1034.1 hPa NW 1.0 mph /  1.6 km/h 1.0 mph /  1.6 km/h 91 % 0.00 in /  0 mm 7 W/m2
08:25 28.6 °F /  -1.9 °C 26.3 °F /  -3.2 °C 30.54 in /  1034.1 hPa Calm   8.0 mph /  12.9 km/h 91 % 0.00 in /  0 mm 9 W/m2
08:30 28.6 °F /  -1.9 °C 26.3 °F /  -3.2 °C 30.54 in /  1034.1 hPa Calm   8.0 mph /  12.9 km/h 91 % 0.00 in /  0 mm 11 W/m2
08:40 28.4 °F /  -2 °C 26.1 °F /  -3.3 °C 30.54 in /  1034.1 hPa NW 1.0 mph /  1.6 km/h 8.0 mph /  12.9 km/h 91 % 0.00 in /  0 mm 14 W/m2
08:45 28.4 °F /  -2 °C 26.1 °F /  -3.3 °C 30.54 in /  1034.1 hPa NW 2.0 mph /  3.2 km/h 8.0 mph /  12.9 km/h 91 % 0.00 in /  0 mm 16 W/m2
08:50 28.4 °F /  -2 °C 26.1 °F /  -3.3 °C 30.54 in /  1034.1 hPa NW 2.0 mph /  3.2 km/h 2.0 mph /  3.2 km/h 91 % 0.00 in /  0 mm 18 W/m2
08:55 28.6 °F /  -1.9 °C 26.3 °F /  -3.2 °C 30.54 in /  1034.1 hPa NW 1.0 mph /  1.6 km/h 8.0 mph /  12.9 km/h 91 % 0.00 in /  0 mm 19 W/m2
09:00 28.8 °F /  -1.8 °C 26.8 °F /  -2.9 °C 30.54 in /  1034.1 hPa Calm   8.0 mph /  12.9 km/h 92 % 0.00 in /  0 mm 21 W/m2
09:05 28.8 °F /  -1.8 °C 26.5 °F /  -3.1 °C 30.54 in /  1034.1 hPa Calm   8.0 mph /  12.9 km/h 91 % 0.00 in /  0 mm 21 W/m2
09:15 28.9 °F /  -1.7 °C 26.6 °F /  -3 °C 30.55 in /  1034.4 hPa Calm   8.0 mph /  12.9 km/h 91 % 0.00 in /  0 mm 25 W/m2
09:20 29.0 °F /  -1.7 °C 26.7 °F /  -2.9 °C 30.55 in /  1034.4 hPa Calm   8.0 mph /  12.9 km/h 91 % 0.00 in /  0 mm 26 W/m2
09:25 29.3 °F /  -1.5 °C 27.3 °F /  -2.6 °C 30.55 in /  1034.4 hPa Calm   8.0 mph /  12.9 km/h 92 % 0.00 in /  0 mm 30 W/m2
09:30 29.5 °F /  -1.4 °C 27.5 °F /  -2.5 °C 30.55 in /  1034.4 hPa Calm   8.0 mph /  12.9 km/h 92 % 0.00 in /  0 mm 109 W/m2
09:35 29.7 °F /  -1.3 °C 27.7 °F /  -2.4 °C 30.55 in /  1034.4 hPa Calm   8.0 mph /  12.9 km/h 92 % 0.00 in /  0 mm 123 W/m2
09:40 30.0 °F /  -1.1 °C 27.7 °F /  -2.4 °C 30.55 in /  1034.4 hPa Calm   8.0 mph /  12.9 km/h 91 % 0.00 in /  0 mm 137 W/m2
09:50 30.9 °F /  -0.6 °C 28.9 °F /  -1.7 °C 30.55 in /  1034.4 hPa Calm   8.0 mph /  12.9 km/h 92 % 0.00 in /  0 mm 142 W/m2
09:55 31.7 °F /  -0.2 °C 29.4 °F /  -1.4 °C 30.55 in /  1034.4 hPa Calm   8.0 mph /  12.9 km/h 91 % 0.00 in /  0 mm 151 W/m2
10:00 32.4 °F /  0.2 °C 29.8 °F /  -1.2 °C 30.55 in /  1034.4 hPa Calm   8.0 mph /  12.9 km/h 90 % 0.00 in /  0 mm 165 W/m2
10:10 33.7 °F /  0.9 °C 30.5 °F /  -0.8 °C 30.55 in /  1034.4 hPa Calm   8.0 mph /  12.9 km/h 88 % 0.00 in /  0 mm 135 W/m2
10:15 34.2 °F /  1.2 °C 31.0 °F /  -0.6 °C 30.55 in /  1034.4 hPa Calm   8.0 mph /  12.9 km/h 88 % 0.00 in /  0 mm 160 W/m2
10:20 34.8 °F /  1.6 °C 31.3 °F /  -0.4 °C 30.55 in /  1034.4 hPa Calm   8.0 mph /  12.9 km/h 87 % 0.00 in /  0 mm 160 W/m2
10:25 35.3 °F /  1.8 °C 31.2 °F /  -0.4 °C 30.55 in /  1034.4 hPa Calm   8.0 mph /  12.9 km/h 85 % 0.00 in /  0 mm 174 W/m2
10:35 35.7 °F /  2.1 °C 31.3 °F /  -0.4 °C 30.56 in /  1034.8 hPa Calm   8.0 mph /  12.9 km/h 84 % 0.00 in /  0 mm 176 W/m2
10:40 36.1 °F /  2.3 °C 31.4 °F /  -0.3 °C 30.56 in /  1034.8 hPa Calm   8.0 mph /  12.9 km/h 83 % 0.00 in /  0 mm 185 W/m2
10:45 36.6 °F /  2.6 °C 31.6 °F /  -0.2 °C 30.55 in /  1034.4 hPa Calm   8.0 mph /  12.9 km/h 82 % 0.00 in /  0 mm 202 W/m2
10:50 37.4 °F /  3 °C 32.1 °F /  0.1 °C 30.55 in /  1034.4 hPa Calm   8.0 mph /  12.9 km/h 81 % 0.00 in /  0 mm 200 W/m2
10:55 38.1 °F /  3.4 °C 32.5 °F /  0.3 °C 30.55 in /  1034.4 hPa Calm   8.0 mph /  12.9 km/h 80 % 0.00 in /  0 mm 216 W/m2
11:00 38.7 °F /  3.7 °C 32.4 °F /  0.2 °C 30.55 in /  1034.4 hPa Calm   8.0 mph /  12.9 km/h 78 % 0.00 in /  0 mm 218 W/m2
11:10 39.2 °F /  4 °C 32.6 °F /  0.3 °C 30.55 in /  1034.4 hPa Calm   8.0 mph /  12.9 km/h 77 % 0.00 in /  0 mm 230 W/m2
11:15 39.5 °F /  4.2 °C 32.6 °F /  0.3 °C 30.54 in /  1034.1 hPa Calm   8.0 mph /  12.9 km/h 76 % 0.00 in /  0 mm 230 W/m2
11:20 39.8 °F /  4.3 °C 32.8 °F /  0.4 °C 30.54 in /  1034.1 hPa Calm   8.0 mph /  12.9 km/h 76 % 0.00 in /  0 mm 232 W/m2
11:25 40.1 °F /  4.5 °C 32.5 °F /  0.3 °C 30.54 in /  1034.1 hPa Calm   8.0 mph /  12.9 km/h 74 % 0.00 in /  0 mm 237 W/m2
11:30 40.2 °F /  4.6 °C 32.6 °F /  0.3 °C 30.54 in /  1034.1 hPa Calm   8.0 mph /  12.9 km/h 74 % 0.00 in /  0 mm 230 W/m2
11:35 40.3 °F /  4.6 °C 32.3 °F /  0.2 °C 30.54 in /  1034.1 hPa Calm   8.0 mph /  12.9 km/h 73 % 0.00 in /  0 mm 246 W/m2
11:45 40.9 °F /  4.9 °C 32.9 °F /  0.5 °C 30.54 in /  1034.1 hPa Calm   8.0 mph /  12.9 km/h 73 % 0.00 in /  0 mm 241 W/m2
11:50 41.0 °F /  5 °C 32.7 °F /  0.4 °C 30.54 in /  1034.1 hPa Calm   8.0 mph /  12.9 km/h 72 % 0.00 in /  0 mm 232 W/m2
11:55 41.0 °F /  5 °C 32.7 °F /  0.4 °C 30.54 in /  1034.1 hPa Calm   8.0 mph /  12.9 km/h 72 % 0.00 in /  0 mm 255 W/m2
12:00 41.1 °F /  5.1 °C 32.8 °F /  0.4 °C 30.54 in /  1034.1 hPa Calm   8.0 mph /  12.9 km/h 72 % 0.00 in /  0 mm 236 W/m2
12:10 41.4 °F /  5.2 °C 33.0 °F /  0.6 °C 30.54 in /  1034.1 hPa Calm   8.0 mph /  12.9 km/h 72 % 0.00 in /  0 mm 255 W/m2
12:15 41.7 °F /  5.4 °C 33.0 °F /  0.6 °C 30.54 in /  1034.1 hPa Calm   8.0 mph /  12.9 km/h 71 % 0.00 in /  0 mm 255 W/m2
12:20 41.9 °F /  5.5 °C 33.2 °F /  0.7 °C 30.54 in /  1034.1 hPa Calm   8.0 mph /  12.9 km/h 71 % 0.00 in /  0 mm 234 W/m2
12:25 42.0 °F /  5.6 °C 33.3 °F /  0.7 °C 30.54 in /  1034.1 hPa Calm   8.0 mph /  12.9 km/h 71 % 0.00 in /  0 mm 255 W/m2
12:30 42.3 °F /  5.7 °C 33.6 °F /  0.9 °C 30.55 in /  1034.4 hPa Calm   8.0 mph /  12.9 km/h 71 % 0.00 in /  0 mm 162 W/m2
12:35 42.3 °F /  5.7 °C 33.6 °F /  0.9 °C 30.55 in /  1034.4 hPa NW 1.0 mph /  1.6 km/h 8.0 mph /  12.9 km/h 71 % 0.00 in /  0 mm 253 W/m2
12:40 42.2 °F /  5.7 °C 33.5 °F /  0.8 °C 30.55 in /  1034.4 hPa Calm   8.0 mph /  12.9 km/h 71 % 0.00 in /  0 mm 253 W/m2
12:50 42.2 °F /  5.7 °C 33.5 °F /  0.8 °C 30.55 in /  1034.4 hPa Calm   8.0 mph /  12.9 km/h 71 % 0.00 in /  0 mm 244 W/m2
12:55 42.3 °F /  5.7 °C 33.6 °F /  0.9 °C 30.55 in /  1034.4 hPa Calm   8.0 mph /  12.9 km/h 71 % 0.00 in /  0 mm 241 W/m2
13:05 42.8 °F /  6 °C 33.7 °F /  0.9 °C 30.54 in /  1034.1 hPa Calm   8.0 mph /  12.9 km/h 70 % 0.00 in /  0 mm 232 W/m2
13:10 42.7 °F /  5.9 °C 33.6 °F /  0.9 °C 30.54 in /  1034.1 hPa NW 1.0 mph /  1.6 km/h 1.0 mph /  1.6 km/h 70 % 0.00 in /  0 mm 227 W/m2
13:15 42.6 °F /  5.9 °C 33.5 °F /  0.8 °C 30.54 in /  1034.1 hPa NW 1.0 mph /  1.6 km/h 8.0 mph /  12.9 km/h 70 % 0.00 in /  0 mm 223 W/m2
13:20 42.5 °F /  5.8 °C 33.8 °F /  1 °C 30.53 in /  1033.7 hPa Calm   8.0 mph /  12.9 km/h 71 % 0.00 in /  0 mm 218 W/m2
13:30 42.7 °F /  5.9 °C 33.6 °F /  0.9 °C 30.53 in /  1033.7 hPa NW 1.0 mph /  1.6 km/h 1.0 mph /  1.6 km/h 70 % 0.00 in /  0 mm 206 W/m2
13:35 42.9 °F /  6.1 °C 33.8 °F /  1 °C 30.54 in /  1034.1 hPa Calm   8.0 mph /  12.9 km/h 70 % 0.00 in /  0 mm 202 W/m2
13:40 42.9 °F /  6.1 °C 33.8 °F /  1 °C 30.54 in /  1034.1 hPa Calm   8.0 mph /  12.9 km/h 70 % 0.00 in /  0 mm 197 W/m2
13:45 42.9 °F /  6.1 °C 33.8 °F /  1 °C 30.54 in /  1034.1 hPa Calm   8.0 mph /  12.9 km/h 70 % 0.00 in /  0 mm 190 W/m2
13:50 42.8 °F /  6 °C 33.7 °F /  0.9 °C 30.53 in /  1033.7 hPa Calm   8.0 mph /  12.9 km/h 70 % 0.00 in /  0 mm 185 W/m2
13:55 42.9 °F /  6.1 °C 33.8 °F /  1 °C 30.54 in /  1034.1 hPa Calm   8.0 mph /  12.9 km/h 70 % 0.00 in /  0 mm 178 W/m2
14:05 43.0 °F /  6.1 °C 33.9 °F /  1.1 °C 30.55 in /  1034.4 hPa Calm   8.0 mph /  12.9 km/h 70 % 0.00 in /  0 mm 165 W/m2
14:10 43.1 °F /  6.2 °C 34.0 °F /  1.1 °C 30.55 in /  1034.4 hPa NW 1.0 mph /  1.6 km/h 1.0 mph /  1.6 km/h 70 % 0.00 in /  0 mm 158 W/m2
14:15 43.2 °F /  6.2 °C 34.1 °F /  1.2 °C 30.55 in /  1034.4 hPa Calm   8.0 mph /  12.9 km/h 70 % 0.00 in /  0 mm 151 W/m2
14:20 43.2 °F /  6.2 °C 34.1 °F /  1.2 °C 30.55 in /  1034.4 hPa Calm   8.0 mph /  12.9 km/h 70 % 0.00 in /  0 mm 144 W/m2
14:25 43.3 °F /  6.3 °C 34.2 °F /  1.2 °C 30.55 in /  1034.4 hPa Calm   8.0 mph /  12.9 km/h 70 % 0.00 in /  0 mm 135 W/m2
14:30 43.2 °F /  6.2 °C 34.1 °F /  1.2 °C 30.55 in /  1034.4 hPa Calm   8.0 mph /  12.9 km/h 70 % 0.00 in /  0 mm 128 W/m2
14:40 43.2 °F /  6.2 °C 34.1 °F /  1.2 °C 30.54 in /  1034.1 hPa Calm   8.0 mph /  12.9 km/h 70 % 0.00 in /  0 mm 107 W/m2
14:45 43.1 °F /  6.2 °C 34.0 °F /  1.1 °C 30.54 in /  1034.1 hPa NW 1.0 mph /  1.6 km/h 8.0 mph /  12.9 km/h 70 % 0.00 in /  0 mm 102 W/m2
14:50 42.9 °F /  6.1 °C 33.8 °F /  1 °C 30.55 in /  1034.4 hPa NW 1.0 mph /  1.6 km/h 1.0 mph /  1.6 km/h 70 % 0.00 in /  0 mm 91 W/m2
14:55 42.6 °F /  5.9 °C 33.9 °F /  1.1 °C 30.55 in /  1034.4 hPa NW 1.0 mph /  1.6 km/h 8.0 mph /  12.9 km/h 71 % 0.00 in /  0 mm 84 W/m2
15:00 42.2 °F /  5.7 °C 33.5 °F /  0.8 °C 30.55 in /  1034.4 hPa NW 1.0 mph /  1.6 km/h 1.0 mph /  1.6 km/h 71 % 0.00 in /  0 mm 74 W/m2
15:05 41.7 °F /  5.4 °C 33.3 °F /  0.7 °C 30.55 in /  1034.4 hPa NW 1.0 mph /  1.6 km/h 8.0 mph /  12.9 km/h 72 % 0.00 in /  0 mm 67 W/m2
15:10 41.4 °F /  5.2 °C 33.4 °F /  0.8 °C 30.55 in /  1034.4 hPa NW 1.0 mph /  1.6 km/h 1.0 mph /  1.6 km/h 73 % 0.00 in /  0 mm 30 W/m2
15:20 41.1 °F /  5.1 °C 33.4 °F /  0.8 °C 30.55 in /  1034.4 hPa Calm   8.0 mph /  12.9 km/h 74 % 0.00 in /  0 mm 23 W/m2
15:25 40.9 °F /  4.9 °C 33.6 °F /  0.9 °C 30.55 in /  1034.4 hPa NW 1.0 mph /  1.6 km/h 8.0 mph /  12.9 km/h 75 % 0.00 in /  0 mm 21 W/m2
15:30 40.6 °F /  4.8 °C 33.3 °F /  0.7 °C 30.55 in /  1034.4 hPa Calm   8.0 mph /  12.9 km/h 75 % 0.00 in /  0 mm 18 W/m2
15:35 40.3 °F /  4.6 °C 33.3 °F /  0.7 °C 30.55 in /  1034.4 hPa Calm   8.0 mph /  12.9 km/h 76 % 0.00 in /  0 mm 16 W/m2
15:40 40.0 °F /  4.4 °C 33.0 °F /  0.6 °C 30.55 in /  1034.4 hPa Calm   8.0 mph /  12.9 km/h 76 % 0.00 in /  0 mm 14 W/m2
15:45 39.7 °F /  4.3 °C 33.1 °F /  0.6 °C 30.55 in /  1034.4 hPa Calm   8.0 mph /  12.9 km/h 77 % 0.00 in /  0 mm 12 W/m2
15:55 39.0 °F /  3.9 °C 32.7 °F /  0.4 °C 30.55 in /  1034.4 hPa Calm   8.0 mph /  12.9 km/h 78 % 0.00 in /  0 mm 9 W/m2
16:00 38.7 °F /  3.7 °C 32.4 °F /  0.2 °C 30.55 in /  1034.4 hPa Calm   8.0 mph /  12.9 km/h 78 % 0.00 in /  0 mm 7 W/m2
16:05 38.3 °F /  3.5 °C 32.4 °F /  0.2 °C 30.55 in /  1034.4 hPa Calm   8.0 mph /  12.9 km/h 79 % 0.00 in /  0 mm 5 W/m2
16:10 37.9 °F /  3.3 °C 32.3 °F /  0.2 °C 30.56 in /  1034.8 hPa Calm   8.0 mph /  12.9 km/h 80 % 0.00 in /  0 mm 5 W/m2
16:15 37.5 °F /  3.1 °C 31.9 °F /  -0.1 °C 30.56 in /  1034.8 hPa Calm   8.0 mph /  12.9 km/h 80 % 0.00 in /  0 mm 0 W/m2
16:25 36.8 °F /  2.7 °C 31.5 °F /  -0.3 °C 30.56 in /  1034.8 hPa Calm   8.0 mph /  12.9 km/h 81 % 0.00 in /  0 mm 0 W/m2
16:30 36.4 °F /  2.4 °C 31.4 °F /  -0.3 °C 30.56 in /  1034.8 hPa Calm   8.0 mph /  12.9 km/h 82 % 0.00 in /  0 mm 0 W/m2
16:35 36.1 °F /  2.3 °C 31.1 °F /  -0.5 °C 30.56 in /  1034.8 hPa Calm   8.0 mph /  12.9 km/h 82 % 0.00 in /  0 mm 0 W/m2
16:40 35.7 °F /  2.1 °C 31.0 °F /  -0.6 °C 30.56 in /  1034.8 hPa Calm   8.0 mph /  12.9 km/h 83 % 0.00 in /  0 mm 0 W/m2
16:45 35.3 °F /  1.8 °C 30.7 °F /  -0.7 °C 30.56 in /  1034.8 hPa Calm   8.0 mph /  12.9 km/h 83 % 0.00 in /  0 mm 0 W/m2
16:50 35.0 °F /  1.7 °C 30.7 °F /  -0.7 °C 30.56 in /  1034.8 hPa Calm   8.0 mph /  12.9 km/h 84 % 0.00 in /  0 mm 0 W/m2
17:00 34.4 °F /  1.3 °C 30.4 °F /  -0.9 °C 30.56 in /  1034.8 hPa Calm   8.0 mph /  12.9 km/h 85 % 0.00 in /  0 mm 0 W/m2
17:05 34.1 °F /  1.2 °C 30.1 °F /  -1.1 °C 30.56 in /  1034.8 hPa Calm   8.0 mph /  12.9 km/h 85 % 0.00 in /  0 mm 0 W/m2
17:10 33.8 °F /  1 °C 29.8 °F /  -1.2 °C 30.56 in /  1034.8 hPa Calm   8.0 mph /  12.9 km/h 85 % 0.00 in /  0 mm 0 W/m2
17:15 33.6 °F /  0.9 °C 29.9 °F /  -1.2 °C 30.56 in /  1034.8 hPa Calm   8.0 mph /  12.9 km/h 86 % 0.00 in /  0 mm 0 W/m2
17:20 33.3 °F /  0.7 °C 29.8 °F /  -1.2 °C 30.57 in /  1035.1 hPa Calm   8.0 mph /  12.9 km/h 87 % 0.00 in /  0 mm 0 W/m2
17:25 33.2 °F /  0.7 °C 29.8 °F /  -1.2 °C 30.56 in /  1034.8 hPa Calm   8.0 mph /  12.9 km/h 87 % 0.00 in /  0 mm 0 W/m2
17:35 33.2 °F /  0.7 °C 30.0 °F /  -1.1 °C 30.56 in /  1034.8 hPa Calm   8.0 mph /  12.9 km/h 88 % 0.00 in /  0 mm 0 W/m2
17:40 33.3 °F /  0.7 °C 30.1 °F /  -1.1 °C 30.56 in /  1034.8 hPa Calm   8.0 mph /  12.9 km/h 88 % 0.00 in /  0 mm 0 W/m2
17:45 33.2 °F /  0.7 °C 30.0 °F /  -1.1 °C 30.56 in /  1034.8 hPa Calm   8.0 mph /  12.9 km/h 88 % 0.00 in /  0 mm 0 W/m2
17:50 33.1 °F /  0.6 °C 30.2 °F /  -1 °C 30.57 in /  1035.1 hPa Calm   8.0 mph /  12.9 km/h 89 % 0.00 in /  0 mm 0 W/m2
17:55 32.8 °F /  0.4 °C 29.6 °F /  -1.3 °C 30.57 in /  1035.1 hPa Calm   8.0 mph /  12.9 km/h 88 % 0.00 in /  0 mm 0 W/m2
18:00 32.6 °F /  0.3 °C 29.4 °F /  -1.4 °C 30.57 in /  1035.1 hPa Calm   8.0 mph /  12.9 km/h 88 % 0.00 in /  0 mm 0 W/m2
18:05 32.4 °F /  0.2 °C 29.2 °F /  -1.6 °C 30.58 in /  1035.4 hPa Calm   8.0 mph /  12.9 km/h 88 % 0.00 in /  0 mm 0 W/m2
18:15 31.8 °F /  -0.1 °C 28.7 °F /  -1.8 °C 30.57 in /  1035.1 hPa Calm   8.0 mph /  12.9 km/h 88 % 0.00 in /  0 mm 0 W/m2
18:20 31.6 °F /  -0.2 °C 28.7 °F /  -1.8 °C 30.57 in /  1035.1 hPa Calm   8.0 mph /  12.9 km/h 89 % 0.00 in /  0 mm 0 W/m2
18:25 31.4 °F /  -0.3 °C 28.5 °F /  -1.9 °C 30.57 in /  1035.1 hPa Calm   8.0 mph /  12.9 km/h 89 % 0.00 in /  0 mm 0 W/m2
18:30 31.2 °F /  -0.4 °C 28.3 °F /  -2.1 °C 30.58 in /  1035.4 hPa Calm   8.0 mph /  12.9 km/h 89 % 0.00 in /  0 mm 0 W/m2
18:35 31.1 °F /  -0.5 °C 28.2 °F /  -2.1 °C 30.57 in /  1035.1 hPa Calm   8.0 mph /  12.9 km/h 89 % 0.00 in /  0 mm 0 W/m2
18:40 31.0 °F /  -0.6 °C 28.4 °F /  -2 °C 30.57 in /  1035.1 hPa Calm   8.0 mph /  12.9 km/h 90 % 0.00 in /  0 mm 0 W/m2
18:50 30.9 °F /  -0.6 °C 28.6 °F /  -1.9 °C 30.57 in /  1035.1 hPa Calm   8.0 mph /  12.9 km/h 91 % 0.00 in /  0 mm 0 W/m2
18:55 30.9 °F /  -0.6 °C 28.6 °F /  -1.9 °C 30.57 in /  1035.1 hPa Calm   8.0 mph /  12.9 km/h 91 % 0.00 in /  0 mm 0 W/m2
19:00 30.9 °F /  -0.6 °C 28.6 °F /  -1.9 °C 30.57 in /  1035.1 hPa Calm   8.0 mph /  12.9 km/h 91 % 0.00 in /  0 mm 0 W/m2
19:05 30.9 °F /  -0.6 °C 28.6 °F /  -1.9 °C 30.57 in /  1035.1 hPa Calm   8.0 mph /  12.9 km/h 91 % 0.00 in /  0 mm 0 W/m2
19:10 31.1 °F /  -0.5 °C 29.0 °F /  -1.7 °C 30.57 in /  1035.1 hPa Calm   8.0 mph /  12.9 km/h 92 % 0.00 in /  0 mm 0 W/m2
19:15 31.1 °F /  -0.5 °C 29.0 °F /  -1.7 °C 30.57 in /  1035.1 hPa Calm   8.0 mph /  12.9 km/h 92 % 0.00 in /  0 mm 0 W/m2
19:25 31.1 °F /  -0.5 °C 29.0 °F /  -1.7 °C 30.57 in /  1035.1 hPa Calm   8.0 mph /  12.9 km/h 92 % 0.00 in /  0 mm 0 W/m2
19:30 31.1 °F /  -0.5 °C 29.0 °F /  -1.7 °C 30.57 in /  1035.1 hPa Calm   8.0 mph /  12.9 km/h 92 % 0.00 in /  0 mm 0 W/m2
19:35 31.1 °F /  -0.5 °C 29.0 °F /  -1.7 °C 30.57 in /  1035.1 hPa Calm   8.0 mph /  12.9 km/h 92 % 0.00 in /  0 mm 0 W/m2
19:40 31.0 °F /  -0.6 °C 28.9 °F /  -1.7 °C 30.57 in /  1035.1 hPa Calm   8.0 mph /  12.9 km/h 92 % 0.00 in /  0 mm 0 W/m2
19:45 30.8 °F /  -0.7 °C 28.8 °F /  -1.8 °C 30.57 in /  1035.1 hPa Calm   8.0 mph /  12.9 km/h 92 % 0.00 in /  0 mm 0 W/m2
19:50 30.6 °F /  -0.8 °C 28.3 °F /  -2.1 °C 30.57 in /  1035.1 hPa Calm   8.0 mph /  12.9 km/h 91 % 0.00 in /  0 mm 0 W/m2
20:00 30.6 °F /  -0.8 °C 28.6 °F /  -1.9 °C 30.57 in /  1035.1 hPa Calm   8.0 mph /  12.9 km/h 92 % 0.00 in /  0 mm 0 W/m2
20:05 30.6 °F /  -0.8 °C 28.6 °F /  -1.9 °C 30.57 in /  1035.1 hPa Calm   8.0 mph /  12.9 km/h 92 % 0.00 in /  0 mm 0 W/m2
20:10 30.4 °F /  -0.9 °C 28.4 °F /  -2 °C 30.57 in /  1035.1 hPa Calm   8.0 mph /  12.9 km/h 92 % 0.00 in /  0 mm 0 W/m2
20:15 30.5 °F /  -0.8 °C 28.5 °F /  -1.9 °C 30.58 in /  1035.4 hPa Calm   8.0 mph /  12.9 km/h 92 % 0.00 in /  0 mm 0 W/m2
20:20 30.7 °F /  -0.7 °C 28.9 °F /  -1.7 °C 30.58 in /  1035.4 hPa Calm   8.0 mph /  12.9 km/h 93 % 0.00 in /  0 mm 0 W/m2
20:25 30.8 °F /  -0.7 °C 29.0 °F /  -1.7 °C 30.58 in /  1035.4 hPa Calm   8.0 mph /  12.9 km/h 93 % 0.00 in /  0 mm 0 W/m2
20:30 30.7 °F /  -0.7 °C 28.9 °F /  -1.7 °C 30.58 in /  1035.4 hPa Calm   8.0 mph /  12.9 km/h 93 % 0.00 in /  0 mm 0 W/m2
20:35 30.7 °F /  -0.7 °C 28.9 °F /  -1.7 °C 30.58 in /  1035.4 hPa Calm   8.0 mph /  12.9 km/h 93 % 0.00 in /  0 mm 0 W/m2
20:45 30.6 °F /  -0.8 °C 28.8 °F /  -1.8 °C 30.57 in /  1035.1 hPa Calm   8.0 mph /  12.9 km/h 93 % 0.00 in /  0 mm 0 W/m2
20:50 30.6 °F /  -0.8 °C 28.8 °F /  -1.8 °C 30.57 in /  1035.1 hPa Calm   8.0 mph /  12.9 km/h 93 % 0.00 in /  0 mm 0 W/m2
20:55 30.6 °F /  -0.8 °C 28.8 °F /  -1.8 °C 30.57 in /  1035.1 hPa Calm   8.0 mph /  12.9 km/h 93 % 0.00 in /  0 mm 0 W/m2
21:00 30.6 °F /  -0.8 °C 28.8 °F /  -1.8 °C 30.57 in /  1035.1 hPa Calm   8.0 mph /  12.9 km/h 93 % 0.00 in /  0 mm 0 W/m2
21:05 30.6 °F /  -0.8 °C 28.8 °F /  -1.8 °C 30.57 in /  1035.1 hPa Calm   8.0 mph /  12.9 km/h 93 % 0.00 in /  0 mm 0 W/m2
21:10 30.6 °F /  -0.8 °C 28.8 °F /  -1.8 °C 30.57 in /  1035.1 hPa Calm   8.0 mph /  12.9 km/h 93 % 0.00 in /  0 mm 0 W/m2
21:20 30.4 °F /  -0.9 °C 28.6 °F /  -1.9 °C 30.57 in /  1035.1 hPa Calm   8.0 mph /  12.9 km/h 93 % 0.00 in /  0 mm 0 W/m2
21:25 30.2 °F /  -1 °C 28.4 °F /  -2 °C 30.57 in /  1035.1 hPa Calm   8.0 mph /  12.9 km/h 93 % 0.00 in /  0 mm 0 W/m2
21:30 30.3 °F /  -0.9 °C 28.5 °F /  -1.9 °C 30.57 in /  1035.1 hPa Calm   8.0 mph /  12.9 km/h 93 % 0.00 in /  0 mm 0 W/m2
21:35 30.4 °F /  -0.9 °C 28.9 °F /  -1.7 °C 30.57 in /  1035.1 hPa Calm   8.0 mph /  12.9 km/h 94 % 0.00 in /  0 mm 0 W/m2
21:40 30.3 °F /  -0.9 °C 28.5 °F /  -1.9 °C 30.57 in /  1035.1 hPa Calm   8.0 mph /  12.9 km/h 93 % 0.00 in /  0 mm 0 W/m2
21:50 29.9 °F /  -1.2 °C 28.1 °F /  -2.2 °C 30.57 in /  1035.1 hPa Calm   8.0 mph /  12.9 km/h 93 % 0.00 in /  0 mm 0 W/m2
21:55 29.8 °F /  -1.2 °C 28.0 °F /  -2.2 °C 30.57 in /  1035.1 hPa NW 1.0 mph /  1.6 km/h 8.0 mph /  12.9 km/h 93 % 0.00 in /  0 mm 0 W/m2
22:05 30.8 °F /  -0.7 °C 29.5 °F /  -1.4 °C 30.57 in /  1035.1 hPa WNW 2.0 mph /  3.2 km/h 8.0 mph /  12.9 km/h 95 % 0.00 in /  0 mm 0 W/m2
22:10 31.2 °F /  -0.4 °C 29.7 °F /  -1.3 °C 30.57 in /  1035.1 hPa WNW 2.0 mph /  3.2 km/h 8.0 mph /  12.9 km/h 94 % 0.00 in /  0 mm 0 W/m2
22:15 31.0 °F /  -0.6 °C 29.2 °F /  -1.6 °C 30.57 in /  1035.1 hPa WNW 3.0 mph /  4.8 km/h 8.0 mph /  12.9 km/h 93 % 0.00 in /  0 mm 0 W/m2
22:20 30.8 °F /  -0.7 °C 29.0 °F /  -1.7 °C 30.57 in /  1035.1 hPa WNW 2.0 mph /  3.2 km/h 2.0 mph /  3.2 km/h 93 % 0.00 in /  0 mm 0 W/m2
22:25 30.8 °F /  -0.7 °C 29.0 °F /  -1.7 °C 30.57 in /  1035.1 hPa WNW 1.0 mph /  1.6 km/h 8.0 mph /  12.9 km/h 93 % 0.00 in /  0 mm 0 W/m2
22:30 30.9 °F /  -0.6 °C 29.1 °F /  -1.6 °C 30.57 in /  1035.1 hPa Calm   8.0 mph /  12.9 km/h 93 % 0.00 in /  0 mm 0 W/m2
22:35 31.0 °F /  -0.6 °C 29.2 °F /  -1.6 °C 30.57 in /  1035.1 hPa Calm   8.0 mph /  12.9 km/h 93 % 0.00 in /  0 mm 0 W/m2
22:45 31.3 °F /  -0.4 °C 29.5 °F /  -1.4 °C 30.57 in /  1035.1 hPa Calm   8.0 mph /  12.9 km/h 93 % 0.00 in /  0 mm 0 W/m2
22:50 31.8 °F /  -0.1 °C 30.3 °F /  -0.9 °C 30.57 in /  1035.1 hPa SW 1.0 mph /  1.6 km/h 1.0 mph /  1.6 km/h 94 % 0.00 in /  0 mm 0 W/m2
22:55 32.1 °F /  0.1 °C 30.6 °F /  -0.8 °C 30.57 in /  1035.1 hPa SW 2.0 mph /  3.2 km/h 2.0 mph /  3.2 km/h 94 % 0.00 in /  0 mm 0 W/m2
23:00 32.5 °F /  0.3 °C 31.0 °F /  -0.6 °C 30.57 in /  1035.1 hPa SW 1.0 mph /  1.6 km/h 8.0 mph /  12.9 km/h 94 % 0.00 in /  0 mm 0 W/m2
23:05 32.7 °F /  0.4 °C 30.9 °F /  -0.6 °C 30.57 in /  1035.1 hPa SSW 2.0 mph /  3.2 km/h 8.0 mph /  12.9 km/h 93 % 0.00 in /  0 mm 0 W/m2
23:15 32.9 °F /  0.5 °C 30.8 °F /  -0.7 °C 30.57 in /  1035.1 hPa SW 1.0 mph /  1.6 km/h 8.0 mph /  12.9 km/h 92 % 0.00 in /  0 mm 0 W/m2
23:20 33.0 °F /  0.6 °C 30.7 °F /  -0.7 °C 30.56 in /  1034.8 hPa SW 1.0 mph /  1.6 km/h 8.0 mph /  12.9 km/h 91 % 0.00 in /  0 mm 0 W/m2
23:25 33.1 °F /  0.6 °C 30.8 °F /  -0.7 °C 30.56 in /  1034.8 hPa WSW 3.0 mph /  4.8 km/h 8.0 mph /  12.9 km/h 91 % 0.00 in /  0 mm 0 W/m2
23:30 33.4 °F /  0.8 °C 31.1 °F /  -0.5 °C 30.56 in /  1034.8 hPa WSW 5.0 mph /  8 km/h 5.0 mph /  8 km/h 91 % 0.00 in /  0 mm 0 W/m2
23:35 33.6 °F /  0.9 °C 31.0 °F /  -0.6 °C 30.57 in /  1035.1 hPa WSW 5.0 mph /  8 km/h 8.0 mph /  12.9 km/h 90 % 0.00 in /  0 mm 0 W/m2
23:40 33.7 °F /  0.9 °C 31.1 °F /  -0.5 °C 30.56 in /  1034.8 hPa WSW 3.0 mph /  4.8 km/h 3.0 mph /  4.8 km/h 90 % 0.00 in /  0 mm 0 W/m2
23:50 33.9 °F /  1.1 °C 31.0 °F /  -0.6 °C 30.56 in /  1034.8 hPa South 2.0 mph /  3.2 km/h 2.0 mph /  3.2 km/h 89 % 0.00 in /  0 mm 0 W/m2
23:55 33.9 °F /  1.1 °C 30.7 °F /  -0.7 °C 30.56 in /  1034.8 hPa WSW 2.0 mph /  3.2 km/h 8.0 mph /  12.9 km/h 88 % 0.00 in /  0 mm 0 W/m2
Delerius-Weather
Compliments of Weather Underground - 2 mb

Data updates at regular intervals.